createdAt,value
2019-04-04T00:01:38.884Z,9.50
2019-04-04T00:11:44.125Z,9.37
2019-04-04T00:21:49.489Z,9.57
2019-04-04T00:31:54.887Z,9.27
2019-04-04T00:42:00.313Z,9.07
2019-04-04T00:52:05.684Z,9.07
2019-04-04T01:02:11.155Z,9.23
2019-04-04T01:12:16.474Z,8.60
2019-04-04T01:22:21.208Z,9.53
2019-04-04T01:32:25.879Z,8.43
2019-04-04T01:42:30.549Z,8.10
2019-04-04T01:52:35.197Z,9.17
2019-04-04T02:02:39.834Z,9.10
2019-04-04T02:12:44.481Z,9.57
2019-04-04T02:22:49.228Z,9.00
2019-04-04T02:32:53.858Z,8.93
2019-04-04T02:42:58.778Z,8.47
2019-04-04T02:53:03.545Z,8.13
2019-04-04T03:03:09.334Z,8.83
2019-04-04T03:13:14.223Z,9.27
2019-04-04T03:23:18.899Z,8.63
2019-04-04T03:33:29.488Z,7.53
2019-04-04T03:43:29.831Z,9.00
2019-04-04T03:53:34.557Z,9.20
2019-04-04T04:03:39.235Z,8.63
2019-04-04T04:13:48.972Z,7.90
2019-04-04T04:23:56.277Z,8.60
2019-04-04T04:34:01.593Z,8.40
2019-04-04T04:44:09.230Z,8.77
2019-04-04T04:54:14.476Z,8.97
2019-04-04T05:04:19.680Z,9.80
2019-04-04T05:14:25.039Z,9.37
2019-04-04T05:24:30.449Z,9.57
2019-04-04T05:34:35.769Z,9.60
2019-04-04T05:44:41.664Z,8.97
2019-04-04T05:54:47.583Z,9.00
2019-04-04T06:04:55.395Z,9.30
2019-04-04T06:15:00.588Z,9.33
2019-04-04T06:25:07.667Z,8.80
2019-04-04T06:35:13.291Z,9.40
2019-04-04T06:45:19.887Z,9.53
2019-04-04T06:55:28.335Z,9.20
2019-04-04T07:05:32.209Z,9.60
2019-04-04T07:15:46.801Z,9.50
2019-04-04T07:25:44.758Z,11.33
2019-04-04T07:35:50.339Z,10.80
2019-04-04T07:45:59.746Z,9.47
2019-04-04T07:56:02.911Z,9.87
2019-04-04T08:06:08.310Z,11.57
2019-04-04T08:16:13.667Z,9.97
2019-04-04T08:26:19.012Z,9.93
2019-04-04T08:36:24.458Z,10.27
2019-04-04T08:46:29.704Z,9.93
2019-04-04T08:56:35.146Z,10.63
2019-04-04T09:06:40.868Z,10.53
2019-04-04T09:16:46.184Z,11.37
2019-04-04T09:26:51.502Z,11.83
2019-04-04T09:36:56.878Z,11.60
2019-04-04T09:47:05.524Z,10.53
2019-04-04T09:57:09.308Z,11.13
2019-04-04T10:07:14.952Z,11.07
2019-04-04T10:17:20.419Z,11.57
2019-04-04T10:27:25.931Z,11.43
2019-04-04T10:37:31.289Z,11.10
2019-04-04T10:47:36.644Z,11.73
2019-04-04T10:57:41.960Z,11.70
2019-04-04T11:07:47.309Z,10.83
2019-04-04T11:17:52.974Z,11.37
2019-04-04T11:27:58.362Z,13.27
2019-04-04T11:38:03.639Z,11.77
2019-04-04T11:48:09.047Z,10.73
2019-04-04T11:58:14.418Z,11.70
2019-04-04T12:08:19.982Z,11.50
2019-04-04T12:18:25.259Z,11.47
2019-04-04T12:28:30.596Z,12.57
2019-04-04T12:38:36.027Z,12.53
2019-04-04T12:48:41.461Z,11.10
2019-04-04T12:58:46.987Z,10.63
2019-04-04T13:08:52.379Z,10.23
2019-04-04T13:18:57.838Z,12.13
2019-04-04T13:29:03.322Z,13.70
2019-04-04T13:39:10.643Z,11.37
2019-04-04T13:49:15.961Z,12.03
2019-04-04T13:59:21.396Z,12.57
2019-04-04T14:09:26.839Z,13.13
2019-04-04T14:19:32.235Z,12.87
2019-04-04T14:29:37.558Z,12.27
2019-04-04T14:39:42.875Z,12.03
2019-04-04T14:49:48.505Z,12.23
2019-04-04T14:59:53.845Z,12.27
2019-04-04T15:09:59.394Z,12.20
2019-04-04T15:20:05.252Z,12.53
2019-04-04T15:30:11.067Z,11.73
2019-04-04T15:40:16.903Z,12.03
2019-04-04T15:50:22.109Z,17.20
2019-04-04T16:00:27.499Z,13.57
2019-04-04T16:10:32.967Z,13.77
2019-04-04T16:20:38.354Z,26.57
2019-04-04T16:30:43.883Z,14.43
2019-04-04T16:40:49.228Z,13.90
2019-04-04T16:50:54.495Z,13.23
2019-04-04T17:01:00.060Z,12.67
2019-04-04T17:11:05.528Z,11.90
2019-04-04T17:21:11.068Z,12.50
2019-04-04T17:31:16.880Z,12.70
2019-04-04T17:41:23.817Z,13.20
2019-04-04T17:51:29.607Z,12.97
2019-04-04T18:01:35.022Z,13.13
2019-04-04T18:11:40.374Z,13.63
2019-04-04T18:21:46.765Z,14.70
2019-04-04T18:31:52.165Z,13.40
2019-04-04T18:41:57.382Z,12.33
2019-04-04T18:52:02.837Z,13.17
2019-04-04T19:02:08.218Z,12.50
2019-04-04T19:12:13.539Z,12.47
2019-04-04T19:22:18.954Z,11.23
2019-04-04T19:32:25.147Z,11.77
2019-04-04T19:42:30.528Z,10.63
2019-04-04T19:52:35.812Z,12.13
2019-04-04T20:02:43.810Z,10.10
2019-04-04T20:12:49.032Z,10.77
2019-04-04T20:22:54.325Z,10.60
2019-04-04T20:32:59.730Z,10.60
2019-04-04T20:43:05.237Z,10.70
2019-04-04T20:53:10.806Z,12.10
2019-04-04T21:03:16.095Z,11.97
2019-04-04T21:13:21.387Z,12.53
2019-04-04T21:23:26.737Z,11.33
2019-04-04T21:33:32.451Z,10.97
2019-04-04T21:43:37.660Z,11.87
2019-04-04T21:53:43.025Z,11.93
2019-04-04T22:03:49.605Z,11.80
2019-04-04T22:13:54.871Z,11.07
2019-04-04T22:24:00.154Z,10.97
2019-04-04T22:34:05.445Z,11.27
2019-04-04T22:44:10.719Z,11.10
2019-04-04T22:54:16.120Z,11.30
2019-04-04T23:04:21.427Z,10.20
2019-04-04T23:14:26.820Z,10.90
2019-04-04T23:24:32.098Z,10.63
2019-04-04T23:34:37.358Z,10.97
2019-04-04T23:44:42.692Z,11.07
2019-04-04T23:54:47.983Z,11.60
